Time;durP1;ratioP1;P1;durP2;ratioP2;P2;SDS_P1;SDS_P2;PMS_P1;PMS_P2;Temp;Humidity;BMP_temperature;BMP_pressure;BME280_temperature;BME280_humidity;BME280_pressure;Samples;Min_cycle;Max_cycle;Signal;HPM_P1;HPM_P2
2022/08/08 00:00:10;;;;;;;3.63;2.20;;;;;;;13.82;95.51;101513.69;691794;28;1702;-80
2022/08/08 00:00:37;;;;;;;3.40;2.20;;;;;;;13.86;94.73;101512.78;692574;28;1694;-79
2022/08/08 00:01:14;;;;;;;3.67;2.10;;;;;;;13.89;96.21;101511.03;687248;28;4290;-80
2022/08/08 00:01:43;;;;;;;3.30;2.20;;;;;;;13.79;96.97;101514.59;687075;28;864;-80
2022/08/08 00:02:32;;;;;;;3.28;2.10;;;;;;;13.74;96.24;101517.22;688304;28;1906;-80
2022/08/08 00:03:04;;;;;;;3.67;2.20;;;;;;;13.83;94.21;101511.06;686828;28;1544;-80
2022/08/08 00:04:05;;;;;;;4.03;2.30;;;;;;;13.92;95.80;101508.38;687058;28;1455;-80
2022/08/08 00:04:44;;;;;;;3.67;2.25;;;;;;;13.89;94.76;101513.66;685010;28;4952;-80
2022/08/08 00:05:08;;;;;;;3.78;2.20;;;;;;;13.93;94.60;101515.38;689562;28;1361;-80
2022/08/08 00:05:38;;;;;;;4.32;2.28;;;;;;;13.92;93.52;101508.38;690617;28;1405;-80
2022/08/08 00:06:11;;;;;;;4.53;2.30;;;;;;;13.98;93.03;101515.34;681903;28;1437;-80
2022/08/08 00:06:40;;;;;;;3.97;2.20;;;;;;;13.91;95.21;101511.88;686068;28;1227;-80
2022/08/08 00:07:11;;;;;;;3.47;2.08;;;;;;;13.96;94.39;101514.50;686154;28;4321;-80
2022/08/08 00:07:50;;;;;;;3.55;2.33;;;;;;;13.93;93.77;101520.66;685819;28;2181;-80
2022/08/08 00:08:23;;;;;;;3.15;2.30;;;;;;;14.00;92.70;101520.59;689354;28;1603;-80
2022/08/08 00:08:56;;;;;;;3.67;2.05;;;;;;;14.08;91.97;101513.53;686174;28;1583;-80
2022/08/08 00:09:38;;;;;;;3.40;2.08;;;;;;;14.06;93.92;101510.06;690673;28;1234;-79
2022/08/08 00:10:13;;;;;;;4.40;2.50;;;;;;;13.94;96.18;101509.25;692279;28;4305;-80
2022/08/08 00:10:52;;;;;;;4.18;2.38;;;;;;;13.93;94.95;101510.13;693562;28;1912;-79
2022/08/08 00:11:20;;;;;;;3.67;2.30;;;;;;;13.96;94.46;101504.84;693583;28;1340;-79
2022/08/08 00:11:44;;;;;;;4.75;2.30;;;;;;;14.00;94.24;101515.34;690304;28;1764;-80
2022/08/08 00:12:10;;;;;;;3.90;2.30;;;;;;;14.06;93.96;101510.06;690957;28;1707;-80
2022/08/08 00:12:42;;;;;;;4.22;2.53;;;;;;;13.98;96.29;101517.97;688590;28;1218;-80
2022/08/08 00:13:27;;;;;;;4.43;2.33;;;;;;;13.94;96.53;101516.25;684530;28;4331;-79
2022/08/08 00:13:59;;;;;;;4.10;2.50;;;;;;;13.96;97.41;101515.38;687337;28;1408;-80
2022/08/08 00:14:40;;;;;;;4.07;2.50;;;;;;;13.89;97.64;101518.91;690701;28;1296;-80
2022/08/08 00:15:06;;;;;;;4.28;2.42;;;;;;;13.87;97.62;101514.53;689981;28;1408;-79
2022/08/08 00:15:42;;;;;;;4.40;2.42;;;;;;;13.87;95.78;101515.41;689106;28;1260;-81
2022/08/08 00:16:21;;;;;;;3.50;2.20;;;;;;;14.03;94.02;101510.09;690296;28;4321;-80
2022/08/08 00:17:04;;;;;;;3.97;2.17;;;;;;;14.12;93.96;101510.91;689364;28;1744;-80
2022/08/08 00:17:29;;;;;;;3.60;2.20;;;;;;;14.12;94.59;101510.91;692523;28;2273;-80
2022/08/08 00:18:15;;;;;;;4.10;2.30;;;;;;;14.12;95.23;101510.03;691946;28;1497;-80
2022/08/08 00:19:21;;;;;;;3.72;2.28;;;;;;;14.11;95.59;101508.28;692330;28;1223;-80
2022/08/08 00:19:48;;;;;;;3.90;2.15;;;;;;;14.14;93.78;101503.00;687439;28;4957;-79
2022/08/08 00:20:10;;;;;;;4.00;2.20;;;;;;;14.18;93.58;101506.47;686757;28;1576;-79
2022/08/08 00:20:40;;;;;;;3.40;2.10;;;;;;;14.17;94.14;101508.25;683721;28;1275;-80
2022/08/08 00:21:01;;;;;;;3.30;2.22;;;;;;;14.10;94.65;101507.41;681107;28;1343;-80
2022/08/08 00:21:32;;;;;;;4.15;2.70;;;;;;;14.08;94.33;101508.28;680028;29;1362;-80
2022/08/08 00:22:05;;;;;;;3.90;2.20;;;;;;;14.22;91.99;101500.31;681160;28;1819;-80
2022/08/08 00:22:35;;;;;;;4.07;2.20;;;;;;;14.22;92.45;101501.22;686077;28;5026;-80
2022/08/08 00:23:03;;;;;;;5.30;2.40;;;;;;;14.22;92.40;101503.84;690116;28;1371;-80
2022/08/08 00:23:34;;;;;;;3.40;2.10;;;;;;;14.13;94.83;101506.50;685243;28;1600;-79
2022/08/08 00:24:01;;;;;;;4.55;2.50;;;;;;;14.01;96.48;101503.97;685380;28;1582;-78
2022/08/08 00:24:33;;;;;;;4.68;2.50;;;;;;;13.92;96.10;101512.78;681476;28;1472;-80
2022/08/08 00:25:03;;;;;;;4.30;2.58;;;;;;;13.77;95.84;101508.47;682778;28;1355;-80
2022/08/08 00:25:32;;;;;;;3.75;2.50;;;;;;;13.81;96.32;101512.81;682679;28;5045;-79
2022/08/08 00:25:57;;;;;;;4.78;2.40;;;;;;;13.87;95.37;101510.16;684414;28;1581;-80
2022/08/08 00:26:33;;;;;;;4.22;2.28;;;;;;;13.88;94.19;101503.16;687181;28;1373;-80
2022/08/08 00:26:57;;;;;;;3.85;2.25;;;;;;;13.89;95.58;101508.41;688202;28;1709;-80
2022/08/08 00:27:19;;;;;;;3.80;2.40;;;;;;;13.93;94.81;101509.28;684131;28;1587;-80
2022/08/08 00:27:42;;;;;;;3.92;2.33;;;;;;;13.90;95.96;101509.25;686711;28;1869;-80
2022/08/08 00:28:05;;;;;;;4.93;2.47;;;;;;;13.79;97.13;101512.84;685414;28;4354;-80
2022/08/08 00:28:32;;;;;;;4.00;2.30;;;;;;;13.70;97.72;101509.38;681108;28;1397;-79
2022/08/08 00:28:58;;;;;;;3.50;2.20;;;;;;;13.75;96.35;101510.22;687926;28;1207;-81
2022/08/08 00:29:24;;;;;;;3.47;2.20;;;;;;;13.81;94.95;101504.94;686551;28;1219;-80
2022/08/08 00:29:53;;;;;;;3.97;2.25;;;;;;;13.79;95.50;101501.47;686245;28;1590;-80
2022/08/08 00:30:14;;;;;;;4.38;2.30;;;;;;;13.83;94.67;101502.28;686907;28;1974;-80
2022/08/08 00:30:39;;;;;;;3.83;2.20;;;;;;;13.86;93.96;101507.53;690427;28;1965;-80
2022/08/08 00:31:04;;;;;;;3.80;2.40;;;;;;;13.87;94.20;101504.03;689530;28;4343;-80
2022/08/08 00:31:33;;;;;;;3.55;2.45;;;;;;;13.88;94.51;101504.03;688723;28;1550;-80
2022/08/08 00:31:59;;;;;;;3.75;2.40;;;;;;;13.86;94.95;101500.53;690650;28;1490;-80
2022/08/08 00:32:51;;;;;;;3.90;2.30;;;;;;;13.71;97.44;101505.88;688128;28;1735;-80
2022/08/08 00:33:17;;;;;;;3.90;2.30;;;;;;;13.67;97.13;101502.38;691107;28;1232;-79
2022/08/08 00:33:44;;;;;;;4.07;2.58;;;;;;;13.66;97.80;101502.38;689889;28;2052;-79
2022/08/08 00:35:09;;;;;;;3.97;2.38;;;;;;;13.57;98.80;101517.31;687122;28;1431;-79
2022/08/08 00:35:57;;;;;;;3.42;2.25;;;;;;;13.68;95.18;101500.59;690055;28;1721;-79
2022/08/08 00:36:29;;;;;;;3.95;2.47;;;;;;;13.58;99.36;101503.28;693522;28;1344;-80
2022/08/08 00:36:57;;;;;;;4.47;2.60;;;;;;;13.58;97.37;101502.41;694043;28;1002;-80
2022/08/08 00:37:36;;;;;;;3.45;2.35;;;;;;;13.60;96.95;101501.53;689630;28;6504;-80
2022/08/08 00:38:14;;;;;;;4.10;2.30;;;;;;;13.69;96.30;101497.09;690009;28;2051;-80
2022/08/08 00:39:10;;;;;;;3.47;2.10;;;;;;;13.66;96.51;101499.75;688241;28;1339;-80
2022/08/08 00:39:51;;;;;;;3.72;2.25;;;;;;;13.65;96.66;101501.50;688783;28;1358;-80
2022/08/08 00:40:12;;;;;;;3.70;2.20;;;;;;;13.52;99.36;101498.03;687378;28;4308;-80
2022/08/08 00:40:46;;;;;;;3.22;2.30;;;;;;;13.49;98.83;101499.81;687069;28;1688;-79
2022/08/08 00:41:25;;;;;;;3.75;2.30;;;;;;;13.60;97.04;101504.16;686433;28;1474;-80
2022/08/08 00:42:07;;;;;;;3.22;2.10;;;;;;;13.68;95.89;101498.88;687527;28;4894;-80
2022/08/08 00:42:59;;;;;;;4.38;2.20;;;;;;;13.54;99.01;101501.56;686913;28;1516;-80
2022/08/08 00:43:42;;;;;;;3.78;2.38;;;;;;;13.50;98.87;101497.19;686823;28;4816;-79
2022/08/08 00:44:29;;;;;;;3.95;2.40;;;;;;;13.56;98.76;101496.28;686864;28;1542;-80
2022/08/08 00:44:52;;;;;;;3.53;2.40;;;;;;;13.45;99.13;101497.19;684094;28;1573;-80
2022/08/08 00:45:40;;;;;;;3.47;2.30;;;;;;;13.48;98.51;101503.31;683014;28;1417;-80
2022/08/08 00:46:42;;;;;;;3.83;2.20;;;;;;;13.47;97.49;101497.19;688567;28;4291;-80
2022/08/08 00:47:40;;;;;;;3.60;2.30;;;;;;;13.51;95.95;101496.28;692172;28;1854;-80
2022/08/08 00:48:21;;;;;;;4.30;2.40;;;;;;;13.42;99.10;101498.97;688863;28;1839;-79
2022/08/08 00:49:00;;;;;;;3.78;2.40;;;;;;;13.44;97.81;101499.81;691775;28;1605;-80
2022/08/08 00:49:33;;;;;;;3.97;2.50;;;;;;;13.46;96.94;101498.09;694314;28;4758;-80
2022/08/08 00:50:16;;;;;;;4.28;2.47;;;;;;;13.45;97.51;101502.44;695585;28;1582;-80
2022/08/08 00:50:59;;;;;;;3.88;2.30;;;;;;;13.40;99.70;101505.97;692467;28;1979;-80
2022/08/08 00:51:36;;;;;;;3.50;2.50;;;;;;;13.37;98.15;101498.97;692625;28;1485;-79
2022/08/08 00:52:36;;;;;;;3.90;2.33;;;;;;;13.45;98.24;101504.19;694722;28;4299;-79
2022/08/08 00:53:29;;;;;;;3.80;2.30;;;;;;;13.45;98.81;101497.19;695268;28;1292;-80
2022/08/08 00:54:05;;;;;;;4.72;2.50;;;;;;;13.37;99.57;101495.47;694127;28;1765;-80
2022/08/08 00:54:26;;;;;;;3.58;2.40;;;;;;;13.37;99.16;101503.34;688829;28;1599;-80
2022/08/08 00:55:08;;;;;;;4.00;2.40;;;;;;;13.34;99.40;101498.94;686178;28;1340;-79
2022/08/08 00:55:51;;;;;;;3.80;2.53;;;;;;;13.32;99.29;101497.19;684750;28;5265;-80
2022/08/08 00:56:35;;;;;;;4.97;2.55;;;;;;;13.36;99.71;101493.72;686892;28;1287;-80
2022/08/08 00:57:07;;;;;;;3.53;2.28;;;;;;;13.46;97.58;101492.81;688722;28;1893;-80
2022/08/08 00:57:53;;;;;;;5.50;2.58;;;;;;;13.46;97.80;101492.81;689443;28;2216;-79
2022/08/08 00:58:54;;;;;;;3.58;2.33;;;;;;;13.47;99.44;101498.94;690832;28;4287;-79
2022/08/08 00:59:53;;;;;;;4.00;2.42;;;;;;;13.51;99.39;101503.31;690731;28;1543;-80
2022/08/08 01:00:19;;;;;;;3.63;2.30;;;;;;;13.54;98.38;101501.56;685991;28;1252;-80
2022/08/08 01:00:51;;;;;;;3.85;2.53;;;;;;;13.47;100.00;101494.56;685074;28;1354;-79
2022/08/08 01:01:25;;;;;;;3.30;2.38;;;;;;;13.44;100.00;101499.81;689003;28;4442;-79
2022/08/08 01:02:26;;;;;;;3.78;2.50;;;;;;;13.36;100.00;101507.75;690183;28;1662;-80
2022/08/08 01:03:21;;;;;;;5.32;2.70;;;;;;;13.38;100.00;101495.47;683575;28;1434;-79
2022/08/08 01:03:50;;;;;;;4.40;2.53;;;;;;;13.37;100.00;101500.72;685762;28;1502;-79
2022/08/08 01:04:42;;;;;;;4.22;2.60;;;;;;;13.35;100.00;101499.84;683955;28;4271;-80
2022/08/08 01:05:23;;;;;;;4.72;2.78;;;;;;;13.38;100.00;101502.47;684967;28;1642;-79
2022/08/08 01:06:15;;;;;;;3.80;2.30;;;;;;;13.42;99.06;101498.97;686638;28;1700;-79
2022/08/08 01:06:58;;;;;;;4.78;2.40;;;;;;;13.45;98.25;101496.31;690386;28;1469;-80
2022/08/08 01:07:33;;;;;;;4.45;2.42;;;;;;;13.46;98.62;101500.72;688083;28;5013;-81
2022/08/08 01:08:27;;;;;;;4.70;2.67;;;;;;;13.36;99.47;101493.72;689744;28;1327;-79
2022/08/08 01:09:07;;;;;;;4.30;2.55;;;;;;;13.36;99.11;101496.34;691446;28;1625;-80
2022/08/08 01:09:46;;;;;;;4.43;2.78;;;;;;;13.37;98.89;101498.09;692658;28;1551;-80
2022/08/08 01:10:50;;;;;;;4.35;2.75;;;;;;;13.38;99.46;101505.97;689398;28;4303;-80
2022/08/08 01:11:38;;;;;;;3.88;2.35;;;;;;;13.39;99.33;101494.59;688493;28;1240;-80
2022/08/08 01:12:40;;;;;;;3.90;2.55;;;;;;;13.42;98.09;101501.59;690060;28;1599;-79
2022/08/08 01:13:44;;;;;;;3.65;2.40;;;;;;;13.42;100.00;101502.47;689122;28;4536;-79
2022/08/08 01:14:42;;;;;;;3.95;2.67;;;;;;;13.39;100.00;101496.38;689687;28;1622;-80
2022/08/08 01:15:30;;;;;;;4.13;2.60;;;;;;;13.33;98.54;101504.22;694884;28;1814;-80
2022/08/08 01:16:14;;;;;;;4.07;2.40;;;;;;;13.28;99.07;101501.59;694136;28;3430;-79
2022/08/08 01:16:55;;;;;;;4.00;2.63;;;;;;;13.32;98.03;101497.19;692281;28;4953;-80
2022/08/08 01:17:18;;;;;;;4.28;2.97;;;;;;;13.27;98.83;101489.34;692525;28;1434;-80
2022/08/08 01:18:10;;;;;;;5.43;3.05;;;;;;;13.24;98.99;101500.72;693642;28;1560;-79
2022/08/08 01:18:53;;;;;;;4.53;2.80;;;;;;;13.27;99.64;101498.09;691306;28;1408;-79
2022/08/08 01:19:21;;;;;;;4.70;2.88;;;;;;;13.26;99.09;101501.59;687554;28;4272;-80
2022/08/08 01:20:03;;;;;;;4.25;2.75;;;;;;;13.28;100.00;101501.59;689438;28;1583;-80
2022/08/08 01:20:42;;;;;;;5.05;3.00;;;;;;;13.24;100.00;101500.72;691268;28;1395;-79
2022/08/08 01:21:16;;;;;;;4.55;2.92;;;;;;;13.27;100.00;101497.22;691529;28;1529;-79
2022/08/08 01:22:09;;;;;;;4.68;2.80;;;;;;;13.24;100.00;101505.97;691829;28;1693;-80
2022/08/08 01:23:04;;;;;;;4.88;2.88;;;;;;;13.22;100.00;101504.22;691760;28;4945;-80
2022/08/08 01:23:49;;;;;;;4.97;3.03;;;;;;;13.19;100.00;101499.00;689542;28;1451;-79
2022/08/08 01:24:29;;;;;;;4.43;3.00;;;;;;;13.14;100.00;101506.88;685901;28;1539;-80
2022/08/08 01:25:39;;;;;;;4.30;2.90;;;;;;;13.16;99.64;101499.88;683413;28;1296;-80
2022/08/08 01:26:30;;;;;;;5.45;3.20;;;;;;;13.23;99.19;101505.97;687714;28;4907;-80
2022/08/08 01:26:56;;;;;;;5.65;3.15;;;;;;;13.26;97.65;101504.25;690954;28;2012;-79
2022/08/08 01:27:39;;;;;;;6.43;3.42;;;;;;;13.25;100.00;101506.84;689309;28;1351;-80
2022/08/08 01:28:11;;;;;;;4.15;2.85;;;;;;;13.20;98.86;101503.38;685870;28;1826;-79
2022/08/08 01:28:50;;;;;;;4.97;2.95;;;;;;;13.17;98.35;101503.38;683953;28;1362;-79
2022/08/08 01:29:20;;;;;;;4.70;3.00;;;;;;;13.25;97.32;101510.34;685002;28;1539;-79
2022/08/08 01:30:15;;;;;;;4.78;3.00;;;;;;;13.27;96.97;101502.47;687521;28;1849;-80
2022/08/08 01:31:21;;;;;;;4.65;3.08;;;;;;;13.20;98.19;101512.09;683782;28;1675;-79
2022/08/08 01:32:28;;;;;;;4.70;3.30;;;;;;;13.23;98.21;101506.84;688480;28;6207;-79
2022/08/08 01:33:07;;;;;;;4.57;3.00;;;;;;;13.22;99.67;101505.13;689950;28;1321;-79
2022/08/08 01:33:42;;;;;;;4.97;2.95;;;;;;;13.19;100.00;101506.88;690909;28;1596;-79
2022/08/08 01:34:32;;;;;;;4.82;3.70;;;;;;;13.19;100.00;101507.72;692706;28;4305;-80
2022/08/08 01:35:32;;;;;;;5.03;3.08;;;;;;;13.34;97.49;101503.34;690488;28;1374;-79
2022/08/08 01:36:27;;;;;;;5.30;3.05;;;;;;;13.28;98.79;101507.72;693222;28;1407;-79
2022/08/08 01:37:16;;;;;;;4.95;3.40;;;;;;;13.33;99.00;101504.22;692962;28;1557;-79
2022/08/08 01:38:02;;;;;;;4.88;3.28;;;;;;;13.21;100.00;101505.09;690800;28;4936;-79
2022/08/08 01:39:01;;;;;;;5.25;3.17;;;;;;;13.16;100.00;101507.75;691683;28;1501;-80
2022/08/08 01:39:41;;;;;;;5.50;3.15;;;;;;;13.13;100.00;101509.53;687842;28;1486;-79
2022/08/08 01:40:06;;;;;;;5.45;3.40;;;;;;;13.10;100.00;101505.16;685854;28;4321;-80
2022/08/08 01:40:58;;;;;;;4.90;3.10;;;;;;;13.07;100.00;101510.38;685594;28;2172;-79
2022/08/08 01:41:35;;;;;;;4.75;2.90;;;;;;;13.03;100.00;101514.78;690732;28;1629;-79
2022/08/08 01:42:04;;;;;;;5.15;3.20;;;;;;;13.08;100.00;101512.13;687405;28;4975;-80
2022/08/08 01:42:34;;;;;;;4.47;3.10;;;;;;;12.96;100.00;101507.78;686409;28;1358;-80
2022/08/08 01:43:03;;;;;;;4.47;2.90;;;;;;;12.87;100.00;101511.28;685104;28;1683;-79
2022/08/08 01:43:40;;;;;;;4.93;2.95;;;;;;;12.93;100.00;101511.28;687584;28;6438;-79
2022/08/08 01:44:29;;;;;;;4.00;2.72;;;;;;;13.01;99.28;101513.03;689562;28;1281;-80
2022/08/08 01:45:05;;;;;;;4.82;2.88;;;;;;;13.05;100.00;101513.00;687420;28;2467;-79
2022/08/08 01:45:34;;;;;;;4.35;3.05;;;;;;;13.00;100.00;101503.41;684428;28;1409;-80
2022/08/08 01:46:01;;;;;;;4.50;2.90;;;;;;;13.01;100.00;101505.16;689906;28;1345;-79
2022/08/08 01:46:40;;;;;;;3.63;2.63;;;;;;;13.03;100.00;101508.63;688539;28;4780;-80
2022/08/08 01:47:30;;;;;;;4.60;2.70;;;;;;;13.06;100.00;101508.66;690632;28;1713;-79
2022/08/08 01:48:27;;;;;;;4.70;3.00;;;;;;;13.14;99.69;101503.38;684580;28;1493;-79
2022/08/08 01:48:54;;;;;;;4.25;2.78;;;;;;;13.12;99.33;101506.00;684674;28;1649;-79
2022/08/08 01:49:43;;;;;;;5.32;2.67;;;;;;;13.19;99.49;101499.84;682559;28;5076;-79
2022/08/08 01:50:15;;;;;;;4.63;2.70;;;;;;;12.98;100.00;101510.41;685871;28;1583;-80
2022/08/08 01:50:52;;;;;;;5.00;2.75;;;;;;;12.87;100.00;101508.66;684491;28;1887;-80
2022/08/08 01:51:28;;;;;;;4.30;2.88;;;;;;;12.95;100.00;101504.28;684489;28;1260;-79
2022/08/08 01:52:07;;;;;;;4.05;3.00;;;;;;;12.81;100.00;101508.66;685939;28;1779;-80
2022/08/08 01:53:15;;;;;;;4.18;2.70;;;;;;;12.81;100.00;101498.19;690926;28;5024;-80
2022/08/08 01:53:42;;;;;;;4.18;2.75;;;;;;;12.79;100.00;101502.53;689669;28;1590;-79
2022/08/08 01:54:23;;;;;;;4.78;3.00;;;;;;;12.76;100.00;101506.03;692952;28;1918;-80
2022/08/08 01:54:55;;;;;;;4.13;2.55;;;;;;;12.82;100.00;101497.31;691946;28;2700;-79
2022/08/08 01:55:28;;;;;;;5.43;2.72;;;;;;;12.85;100.00;101499.91;685686;28;6768;-79
2022/08/08 01:56:09;;;;;;;4.55;2.70;;;;;;;12.86;100.00;101501.69;687578;28;1655;-79
2022/08/08 01:56:46;;;;;;;3.83;2.55;;;;;;;12.85;100.00;101502.53;684388;28;1408;-79
2022/08/08 01:57:16;;;;;;;5.10;2.80;;;;;;;12.92;98.65;101500.78;683909;28;1569;-79
2022/08/08 01:58:01;;;;;;;4.15;2.60;;;;;;;12.89;100.00;101496.41;685575;28;850;-79
2022/08/08 01:58:37;;;;;;;4.38;2.70;;;;;;;12.92;100.00;101498.16;689132;28;4959;-79
2022/08/08 01:59:46;;;;;;;3.72;2.90;;;;;;;12.78;100.00;101498.19;691203;28;1488;-79
2022/08/08 02:00:21;;;;;;;5.47;2.97;;;;;;;12.72;100.00;101509.56;684730;28;2221;-79
2022/08/08 02:01:07;;;;;;;4.72;3.03;;;;;;;12.59;100.00;101503.41;686194;28;1239;-79
2022/08/08 02:01:39;;;;;;;4.00;2.80;;;;;;;12.63;100.00;101500.78;690435;28;4965;-79
2022/08/08 02:02:21;;;;;;;4.82;2.97;;;;;;;12.69;100.00;101504.28;690821;28;1834;-79
2022/08/08 02:02:53;;;;;;;6.55;3.00;;;;;;;12.64;100.00;101502.53;689979;28;1872;-79
2022/08/08 02:03:33;;;;;;;4.03;2.80;;;;;;;12.59;100.00;101506.03;689641;28;1575;-79
2022/08/08 02:04:23;;;;;;;4.80;3.20;;;;;;;12.57;100.00;101505.19;690733;28;1377;-79
2022/08/08 02:04:57;;;;;;;4.97;2.80;;;;;;;12.63;100.00;101509.56;690389;28;4985;-80
2022/08/08 02:05:44;;;;;;;4.57;2.83;;;;;;;12.67;100.00;101510.41;692223;28;1427;-79
2022/08/08 02:06:19;;;;;;;4.57;2.95;;;;;;;12.63;100.00;101508.66;690497;28;1717;-79
2022/08/08 02:06:54;;;;;;;5.00;2.92;;;;;;;12.67;100.00;101505.16;689362;28;1685;-80
2022/08/08 02:07:36;;;;;;;3.95;2.85;;;;;;;12.67;100.00;101499.91;686700;28;4980;-79
2022/08/08 02:08:16;;;;;;;4.50;2.70;;;;;;;12.77;100.00;101507.78;685852;28;1486;-79
2022/08/08 02:09:00;;;;;;;5.32;2.95;;;;;;;12.77;100.00;101501.69;692195;28;1718;-80
2022/08/08 02:09:50;;;;;;;4.57;2.78;;;;;;;12.69;100.00;101506.06;687062;28;1457;-79
2022/08/08 02:10:32;;;;;;;4.55;2.92;;;;;;;12.68;100.00;101506.91;687377;28;4352;-79
2022/08/08 02:11:04;;;;;;;4.28;2.80;;;;;;;12.76;100.00;101506.03;687797;28;1659;-79
2022/08/08 02:11:30;;;;;;;4.50;2.83;;;;;;;12.74;100.00;101504.31;690774;28;2669;-80
2022/08/08 02:11:51;;;;;;;4.13;2.78;;;;;;;12.73;100.00;101513.03;689865;28;3794;-79
2022/08/08 02:12:24;;;;;;;4.90;3.10;;;;;;;12.64;100.00;101506.06;688442;28;1369;-80
2022/08/08 02:12:56;;;;;;;4.60;3.10;;;;;;;12.57;100.00;101505.19;688011;28;1569;-80
2022/08/08 02:13:28;;;;;;;4.85;3.08;;;;;;;12.47;100.00;101505.16;680987;28;4778;-80
2022/08/08 02:13:56;;;;;;;4.28;3.08;;;;;;;12.45;100.00;101502.53;684219;28;1770;-79
2022/08/08 02:14:56;;;;;;;4.55;3.08;;;;;;;12.50;100.00;101500.81;686687;28;1499;-79
2022/08/08 02:15:53;;;;;;;4.57;2.90;;;;;;;12.57;100.00;101509.53;685645;28;2184;-79
2022/08/08 02:16:33;;;;;;;4.28;2.72;;;;;;;12.51;100.00;101505.16;678095;28;4613;-80
2022/08/08 02:17:03;;;;;;;4.80;2.90;;;;;;;12.52;100.00;101503.44;682684;28;1174;-80
2022/08/08 02:17:25;;;;;;;3.80;2.75;;;;;;;12.56;100.00;101507.81;686867;28;1343;-79
2022/08/08 02:18:05;;;;;;;4.65;2.90;;;;;;;12.55;100.00;101504.28;682976;28;1391;-80
2022/08/08 02:18:39;;;;;;;4.97;2.83;;;;;;;12.62;100.00;101501.69;685717;28;1613;-79
2022/08/08 02:19:27;;;;;;;5.60;2.80;;;;;;;12.61;100.00;101506.03;681894;28;4319;-80
2022/08/08 02:19:54;;;;;;;5.20;2.83;;;;;;;12.60;100.00;101507.78;685902;28;1538;-80
2022/08/08 02:20:28;;;;;;;5.63;3.00;;;;;;;12.62;100.00;101509.56;687219;28;1709;-79
2022/08/08 02:23:08;;;;;;;4.22;3.22;;;;;;;12.41;100.00;101517.38;691311;28;5137;-79
2022/08/08 02:23:35;;;;;;;4.50;3.15;;;;;;;12.50;100.00;101513.03;691957;28;1370;-80
2022/08/08 02:24:11;;;;;;;4.70;3.00;;;;;;;12.59;100.00;101519.16;688687;28;1369;-79
2022/08/08 02:24:50;;;;;;;4.65;3.03;;;;;;;12.60;100.00;101517.44;689256;28;1477;-80
2022/08/08 02:25:32;;;;;;;4.78;2.80;;;;;;;12.63;100.00;101516.53;686053;28;4457;-80
2022/08/08 02:26:20;;;;;;;4.10;2.83;;;;;;;12.63;100.00;101516.53;683850;28;1340;-79
2022/08/08 02:26:49;;;;;;;4.25;2.63;;;;;;;12.64;100.00;101520.91;688988;28;1249;-79
2022/08/08 02:27:17;;;;;;;4.50;2.75;;;;;;;12.72;100.00;101521.78;691186;28;1586;-79
2022/08/08 02:27:46;;;;;;;5.00;2.95;;;;;;;12.73;100.00;101524.41;688495;28;1502;-79
2022/08/08 02:28:31;;;;;;;5.00;3.10;;;;;;;12.72;100.00;101520.06;690562;28;4311;-79
2022/08/08 02:29:00;;;;;;;4.90;2.70;;;;;;;12.69;100.00;101516.53;690074;28;1649;-80
2022/08/08 02:30:01;;;;;;;4.05;2.90;;;;;;;12.64;100.00;101513.03;690315;28;1520;-79
2022/08/08 02:30:29;;;;;;;4.93;2.90;;;;;;;12.62;100.00;101513.03;690037;28;1143;-79
2022/08/08 02:31:03;;;;;;;4.97;2.70;;;;;;;12.57;100.00;101515.66;688438;28;1552;-79
2022/08/08 02:31:41;;;;;;;5.22;3.30;;;;;;;12.54;100.00;101512.16;686778;28;1489;-79
2022/08/08 02:32:12;;;;;;;4.85;3.10;;;;;;;12.50;100.00;101515.66;686913;28;1694;-79
2022/08/08 02:32:55;;;;;;;5.13;3.05;;;;;;;12.41;100.00;101513.91;692187;28;1495;-80
2022/08/08 02:33:39;;;;;;;4.82;3.08;;;;;;;12.46;100.00;101512.16;690187;28;1470;-79
2022/08/08 02:34:18;;;;;;;4.43;2.78;;;;;;;12.51;100.00;101510.41;687356;28;4413;-79
2022/08/08 02:34:57;;;;;;;3.97;2.67;;;;;;;12.40;100.00;101513.00;687022;28;7190;-80
2022/08/08 02:35:26;;;;;;;4.90;3.20;;;;;;;12.34;100.00;101514.78;685611;28;1800;-80
2022/08/08 02:36:32;;;;;;;4.63;3.20;;;;;;;12.25;100.00;101519.13;685445;28;7293;-80
2022/08/08 02:37:27;;;;;;;4.28;3.20;;;;;;;12.22;100.00;101511.22;678232;29;4426;-80
2022/08/08 02:37:57;;;;;;;4.55;2.95;;;;;;;12.23;100.00;101515.63;689296;28;7501;-79
2022/08/08 02:38:37;;;;;;;4.32;3.05;;;;;;;12.24;100.00;101509.50;686903;28;1411;-80
2022/08/08 02:39:28;;;;;;;5.18;3.20;;;;;;;12.26;100.00;101507.75;684737;28;1894;-80
2022/08/08 02:40:14;;;;;;;6.10;3.25;;;;;;;12.32;100.00;101511.25;685524;28;1234;-80
2022/08/08 02:40:41;;;;;;;4.30;2.92;;;;;;;12.23;100.00;101505.13;681702;28;5067;-79
2022/08/08 02:41:13;;;;;;;4.85;3.47;;;;;;;12.15;100.00;101509.47;684470;28;1715;-79
2022/08/08 02:41:54;;;;;;;5.18;3.25;;;;;;;12.26;100.00;101510.38;683430;28;1177;-79
2022/08/08 02:42:41;;;;;;;5.47;3.25;;;;;;;12.30;100.00;101510.41;683680;28;2800;-79
2022/08/08 02:43:43;;;;;;;5.57;2.90;;;;;;;12.32;100.00;101511.25;683036;28;4301;-80
2022/08/08 02:44:28;;;;;;;4.20;2.80;;;;;;;12.36;100.00;101513.00;688026;28;1358;-80
2022/08/08 02:45:19;;;;;;;4.78;2.90;;;;;;;12.20;100.00;101513.00;686338;28;1752;-79
2022/08/08 02:45:59;;;;;;;4.55;3.00;;;;;;;12.23;100.00;101507.75;685829;28;1674;-80
2022/08/08 02:46:50;;;;;;;4.78;3.05;;;;;;;12.20;100.00;101514.75;692705;28;4955;-79
2022/08/08 02:47:39;;;;;;;3.90;2.90;;;;;;;12.23;100.00;101505.13;691608;28;1601;-79
2022/08/08 02:48:25;;;;;;;4.20;3.00;;;;;;;12.27;100.00;101508.63;694265;28;1563;-79
2022/08/08 02:49:17;;;;;;;4.57;3.10;;;;;;;12.29;100.00;101508.63;692945;28;1202;-80
2022/08/08 02:49:43;;;;;;;5.07;3.05;;;;;;;12.34;100.00;101510.38;693111;28;5281;-79
2022/08/08 02:50:43;;;;;;;4.55;3.05;;;;;;;12.33;100.00;101510.41;693082;28;1661;-80
2022/08/08 02:51:41;;;;;;;5.45;3.30;;;;;;;12.33;100.00;101511.25;688329;28;1546;-79
2022/08/08 02:52:22;;;;;;;4.35;3.10;;;;;;;12.26;100.00;101512.13;687286;28;5436;-80
2022/08/08 02:53:04;;;;;;;4.82;3.10;;;;;;;12.24;100.00;101508.63;686195;28;1462;-80
2022/08/08 02:54:07;;;;;;;4.93;3.10;;;;;;;12.31;100.00;101510.41;688204;28;1597;-79
2022/08/08 02:54:55;;;;;;;4.47;3.20;;;;;;;12.13;100.00;101513.84;687048;28;1631;-79
2022/08/08 02:55:23;;;;;;;5.70;3.50;;;;;;;12.09;100.00;101506.84;688690;28;4933;-79
2022/08/08 02:56:02;;;;;;;5.30;3.17;;;;;;;12.13;100.00;101513.84;687488;28;1195;-79
2022/08/08 02:56:47;;;;;;;4.50;3.20;;;;;;;12.19;100.00;101513.84;687500;28;1204;-79
2022/08/08 02:57:27;;;;;;;5.28;3.20;;;;;;;12.34;100.00;101515.63;688994;28;1507;-79
2022/08/08 02:57:53;;;;;;;4.72;3.17;;;;;;;12.26;100.00;101512.13;693322;28;1402;-79
2022/08/08 02:58:43;;;;;;;4.90;3.20;;;;;;;12.23;100.00;101515.63;689520;28;5039;-79
2022/08/08 02:59:15;;;;;;;5.15;3.30;;;;;;;12.17;100.00;101509.47;692018;28;1846;-80
2022/08/08 03:00:16;;;;;;;5.70;3.17;;;;;;;12.17;100.00;101512.09;690579;28;1428;-80
2022/08/08 03:01:01;;;;;;;5.55;3.55;;;;;;;12.13;100.00;101513.84;692042;28;1455;-80
2022/08/08 03:01:57;;;;;;;5.55;3.25;;;;;;;12.16;100.00;101513.84;691344;28;4946;-79
2022/08/08 03:02:32;;;;;;;5.05;3.15;;;;;;;12.13;100.00;101508.63;691622;28;1462;-79
2022/08/08 03:03:09;;;;;;;4.95;3.47;;;;;;;12.04;100.00;101513.81;687455;28;1889;-80
2022/08/08 03:03:59;;;;;;;5.53;3.50;;;;;;;11.97;100.00;101512.06;690870;28;1501;-80
2022/08/08 03:04:50;;;;;;;5.30;3.20;;;;;;;12.02;100.00;101513.81;689250;28;6159;-79
2022/08/08 03:05:29;;;;;;;5.35;3.80;;;;;;;11.93;100.00;101511.13;692835;28;1407;-79
2022/08/08 03:06:27;;;;;;;5.28;3.30;;;;;;;11.96;100.00;101511.16;691954;28;1335;-79
2022/08/08 03:07:16;;;;;;;5.30;3.50;;;;;;;11.94;100.00;101510.31;691864;28;1528;-79
2022/08/08 03:08:04;;;;;;;5.20;3.50;;;;;;;11.97;100.00;101506.81;689268;28;5599;-80
2022/08/08 03:09:09;;;;;;;4.63;3.58;;;;;;;11.95;100.00;101513.78;694935;28;1508;-79
2022/08/08 03:10:07;;;;;;;5.18;3.38;;;;;;;11.98;100.00;101511.19;694908;28;1451;-79
2022/08/08 03:11:14;;;;;;;5.50;3.38;;;;;;;11.96;100.00;101505.94;695895;28;4785;-80
2022/08/08 03:12:09;;;;;;;5.43;3.60;;;;;;;11.96;100.00;101510.31;695127;28;1171;-79